sensor_id;sensor_type;location;lat;lon;timestamp;temperature;humidity
3528;DHT22;1778;47.966;7.854;2022-09-01T00:00:46;15.10;99.90
3528;DHT22;1778;47.966;7.854;2022-09-01T00:01:52;15.10;99.90
3528;DHT22;1778;47.966;7.854;2022-09-01T00:02:54;15.10;99.90
3528;DHT22;1778;47.966;7.854;2022-09-01T00:03:58;15.10;99.90
3528;DHT22;1778;47.966;7.854;2022-09-01T00:05:05;15.20;99.90
3528;DHT22;1778;47.966;7.854;2022-09-01T00:06:07;15.10;99.90
3528;DHT22;1778;47.966;7.854;2022-09-01T00:07:12;15.10;99.90
3528;DHT22;1778;47.966;7.854;2022-09-01T00:08:13;15.10;99.90
3528;DHT22;1778;47.966;7.854;2022-09-01T00:09:20;15.20;99.90
3528;DHT22;1778;47.966;7.854;2022-09-01T00:10:21;15.10;99.90
3528;DHT22;1778;47.966;7.854;2022-09-01T00:11:24;15.10;99.90
3528;DHT22;1778;47.966;7.854;2022-09-01T00:12:27;15.10;99.90
3528;DHT22;1778;47.966;7.854;2022-09-01T00:13:29;15.10;99.90
3528;DHT22;1778;47.966;7.854;2022-09-01T00:14:38;15.10;99.90
3528;DHT22;1778;47.966;7.854;2022-09-01T00:15:42;15.00;99.90
3528;DHT22;1778;47.966;7.854;2022-09-01T00:16:43;15.00;99.90
3528;DHT22;1778;47.966;7.854;2022-09-01T00:17:48;15.00;99.90
3528;DHT22;1778;47.966;7.854;2022-09-01T00:18:52;15.00;99.90
3528;DHT22;1778;47.966;7.854;2022-09-01T00:19:54;15.00;99.90
3528;DHT22;1778;47.966;7.854;2022-09-01T00:20:56;15.00;99.90
3528;DHT22;1778;47.966;7.854;2022-09-01T00:21:59;15.00;99.90
3528;DHT22;1778;47.966;7.854;2022-09-01T00:23:01;15.00;99.90
3528;DHT22;1778;47.966;7.854;2022-09-01T00:24:03;15.00;99.90
3528;DHT22;1778;47.966;7.854;2022-09-01T00:25:05;15.00;99.90
3528;DHT22;1778;47.966;7.854;2022-09-01T00:26:08;15.00;99.90
3528;DHT22;1778;47.966;7.854;2022-09-01T00:27:10;15.00;99.90
3528;DHT22;1778;47.966;7.854;2022-09-01T00:28:13;15.00;99.90
3528;DHT22;1778;47.966;7.854;2022-09-01T00:29:15;15.00;99.90
3528;DHT22;1778;47.966;7.854;2022-09-01T00:30:20;15.00;99.90
3528;DHT22;1778;47.966;7.854;2022-09-01T00:31:23;15.00;99.90
3528;DHT22;1778;47.966;7.854;2022-09-01T00:32:25;14.90;99.90
3528;DHT22;1778;47.966;7.854;2022-09-01T00:33:26;15.00;99.90
3528;DHT22;1778;47.966;7.854;2022-09-01T00:34:28;14.90;99.90
3528;DHT22;1778;47.966;7.854;2022-09-01T00:35:30;15.00;99.90
3528;DHT22;1778;47.966;7.854;2022-09-01T00:36:37;14.90;99.90
3528;DHT22;1778;47.966;7.854;2022-09-01T00:37:39;14.90;99.90
3528;DHT22;1778;47.966;7.854;2022-09-01T00:38:41;14.90;99.90
3528;DHT22;1778;47.966;7.854;2022-09-01T00:39:43;14.90;99.90
3528;DHT22;1778;47.966;7.854;2022-09-01T00:40:45;14.90;99.90
3528;DHT22;1778;47.966;7.854;2022-09-01T00:41:46;14.90;99.90
3528;DHT22;1778;47.966;7.854;2022-09-01T00:42:51;14.90;99.90
3528;DHT22;1778;47.966;7.854;2022-09-01T00:43:59;15.00;99.90
3528;DHT22;1778;47.966;7.854;2022-09-01T00:45:00;15.00;99.90
3528;DHT22;1778;47.966;7.854;2022-09-01T00:46:05;14.90;99.90
3528;DHT22;1778;47.966;7.854;2022-09-01T00:47:09;15.00;99.90
3528;DHT22;1778;47.966;7.854;2022-09-01T00:48:10;14.90;99.90
3528;DHT22;1778;47.966;7.854;2022-09-01T00:49:21;14.90;99.90
3528;DHT22;1778;47.966;7.854;2022-09-01T00:50:24;14.90;99.90
3528;DHT22;1778;47.966;7.854;2022-09-01T00:51:27;14.90;99.90
3528;DHT22;1778;47.966;7.854;2022-09-01T00:52:35;14.90;99.90
3528;DHT22;1778;47.966;7.854;2022-09-01T00:53:41;14.80;99.90
3528;DHT22;1778;47.966;7.854;2022-09-01T00:54:50;14.80;99.90
3528;DHT22;1778;47.966;7.854;2022-09-01T00:55:54;14.80;99.90
3528;DHT22;1778;47.966;7.854;2022-09-01T00:56:56;14.80;99.90
3528;DHT22;1778;47.966;7.854;2022-09-01T00:57:59;14.80;99.90
3528;DHT22;1778;47.966;7.854;2022-09-01T00:59:04;14.80;99.90
3528;DHT22;1778;47.966;7.854;2022-09-01T01:00:17;14.80;99.90
3528;DHT22;1778;47.966;7.854;2022-09-01T01:01:20;14.80;99.90
3528;DHT22;1778;47.966;7.854;2022-09-01T01:02:24;14.70;99.90
3528;DHT22;1778;47.966;7.854;2022-09-01T01:03:25;14.70;99.90
3528;DHT22;1778;47.966;7.854;2022-09-01T01:04:28;14.80;99.90
3528;DHT22;1778;47.966;7.854;2022-09-01T01:05:33;14.70;99.90
3528;DHT22;1778;47.966;7.854;2022-09-01T01:06:35;14.70;99.90
3528;DHT22;1778;47.966;7.854;2022-09-01T01:07:36;14.80;99.90
3528;DHT22;1778;47.966;7.854;2022-09-01T01:08:48;14.80;99.90
3528;DHT22;1778;47.966;7.854;2022-09-01T01:09:58;14.80;99.90
3528;DHT22;1778;47.966;7.854;2022-09-01T01:11:05;14.80;99.90
3528;DHT22;1778;47.966;7.854;2022-09-01T01:12:08;14.80;99.90
3528;DHT22;1778;47.966;7.854;2022-09-01T01:13:17;14.80;99.90
3528;DHT22;1778;47.966;7.854;2022-09-01T01:14:21;14.90;99.90
3528;DHT22;1778;47.966;7.854;2022-09-01T01:15:24;14.80;99.90
3528;DHT22;1778;47.966;7.854;2022-09-01T01:16:27;14.80;99.90
3528;DHT22;1778;47.966;7.854;2022-09-01T01:17:29;14.80;99.90
3528;DHT22;1778;47.966;7.854;2022-09-01T01:18:30;14.80;99.90
3528;DHT22;1778;47.966;7.854;2022-09-01T01:19:51;14.80;99.90
3528;DHT22;1778;47.966;7.854;2022-09-01T01:21:25;14.70;99.90
3528;DHT22;1778;47.966;7.854;2022-09-01T01:24:27;14.70;99.90
3528;DHT22;1778;47.966;7.854;2022-09-01T01:26:46;14.70;99.90
3528;DHT22;1778;47.966;7.854;2022-09-01T01:27:50;14.60;99.90
3528;DHT22;1778;47.966;7.854;2022-09-01T01:28:51;14.70;99.90
3528;DHT22;1778;47.966;7.854;2022-09-01T01:29:56;14.60;99.90
3528;DHT22;1778;47.966;7.854;2022-09-01T01:31:06;14.70;99.90
3528;DHT22;1778;47.966;7.854;2022-09-01T01:32:12;14.70;99.90
3528;DHT22;1778;47.966;7.854;2022-09-01T01:33:14;14.70;99.90
3528;DHT22;1778;47.966;7.854;2022-09-01T01:34:16;14.70;99.90
3528;DHT22;1778;47.966;7.854;2022-09-01T01:35:20;14.70;99.90
3528;DHT22;1778;47.966;7.854;2022-09-01T01:36:29;14.70;99.90
3528;DHT22;1778;47.966;7.854;2022-09-01T01:37:35;14.60;99.90
3528;DHT22;1778;47.966;7.854;2022-09-01T01:38:36;14.60;99.90
3528;DHT22;1778;47.966;7.854;2022-09-01T01:39:40;14.70;99.90
3528;DHT22;1778;47.966;7.854;2022-09-01T01:40:43;14.60;99.90
3528;DHT22;1778;47.966;7.854;2022-09-01T01:41:45;14.60;99.90
3528;DHT22;1778;47.966;7.854;2022-09-01T01:42:52;14.70;99.90
3528;DHT22;1778;47.966;7.854;2022-09-01T01:43:56;14.60;99.90
3528;DHT22;1778;47.966;7.854;2022-09-01T01:45:00;14.60;99.90
3528;DHT22;1778;47.966;7.854;2022-09-01T01:46:04;14.60;99.90
3528;DHT22;1778;47.966;7.854;2022-09-01T01:47:12;14.60;99.90
3528;DHT22;1778;47.966;7.854;2022-09-01T01:48:14;14.60;99.90
3528;DHT22;1778;47.966;7.854;2022-09-01T01:49:26;14.60;99.90
3528;DHT22;1778;47.966;7.854;2022-09-01T01:50:31;14.60;99.90
3528;DHT22;1778;47.966;7.854;2022-09-01T01:51:53;14.70;99.90
3528;DHT22;1778;47.966;7.854;2022-09-01T01:53:06;14.60;99.90
3528;DHT22;1778;47.966;7.854;2022-09-01T01:54:12;14.60;99.90
3528;DHT22;1778;47.966;7.854;2022-09-01T01:55:14;14.60;99.90
3528;DHT22;1778;47.966;7.854;2022-09-01T01:56:21;14.60;99.90
3528;DHT22;1778;47.966;7.854;2022-09-01T01:57:26;14.60;99.90
3528;DHT22;1778;47.966;7.854;2022-09-01T01:58:32;14.60;99.90
3528;DHT22;1778;47.966;7.854;2022-09-01T01:59:41;14.60;99.90
3528;DHT22;1778;47.966;7.854;2022-09-01T02:00:42;14.60;99.90
3528;DHT22;1778;47.966;7.854;2022-09-01T02:01:45;14.50;99.90
3528;DHT22;1778;47.966;7.854;2022-09-01T02:02:52;14.50;99.90
3528;DHT22;1778;47.966;7.854;2022-09-01T02:03:55;14.50;99.90
3528;DHT22;1778;47.966;7.854;2022-09-01T02:05:00;14.50;99.90
3528;DHT22;1778;47.966;7.854;2022-09-01T02:06:03;14.50;99.90
3528;DHT22;1778;47.966;7.854;2022-09-01T02:07:10;14.60;99.90
3528;DHT22;1778;47.966;7.854;2022-09-01T02:08:14;14.50;99.90
3528;DHT22;1778;47.966;7.854;2022-09-01T02:09:20;14.50;99.90
3528;DHT22;1778;47.966;7.854;2022-09-01T02:10:25;14.50;99.90
3528;DHT22;1778;47.966;7.854;2022-09-01T02:11:28;14.60;99.90
3528;DHT22;1778;47.966;7.854;2022-09-01T02:12:30;14.50;99.90
3528;DHT22;1778;47.966;7.854;2022-09-01T02:13:33;14.50;99.90
3528;DHT22;1778;47.966;7.854;2022-09-01T02:14:35;14.50;99.90
3528;DHT22;1778;47.966;7.854;2022-09-01T02:15:40;14.50;99.90
3528;DHT22;1778;47.966;7.854;2022-09-01T02:16:45;14.50;99.90
3528;DHT22;1778;47.966;7.854;2022-09-01T02:17:47;14.50;99.90
3528;DHT22;1778;47.966;7.854;2022-09-01T02:18:49;14.50;99.90
3528;DHT22;1778;47.966;7.854;2022-09-01T02:19:51;14.50;99.90
3528;DHT22;1778;47.966;7.854;2022-09-01T02:20:58;14.50;99.90
3528;DHT22;1778;47.966;7.854;2022-09-01T02:21:59;14.50;99.90
3528;DHT22;1778;47.966;7.854;2022-09-01T02:23:02;14.60;99.90
3528;DHT22;1778;47.966;7.854;2022-09-01T02:24:11;14.60;99.90
3528;DHT22;1778;47.966;7.854;2022-09-01T02:25:13;14.50;99.90
3528;DHT22;1778;47.966;7.854;2022-09-01T02:26:16;14.50;99.90
3528;DHT22;1778;47.966;7.854;2022-09-01T02:27:22;14.50;99.90
3528;DHT22;1778;47.966;7.854;2022-09-01T02:28:30;14.50;99.90
3528;DHT22;1778;47.966;7.854;2022-09-01T02:29:37;14.50;99.90
3528;DHT22;1778;47.966;7.854;2022-09-01T02:30:46;14.50;99.90
3528;DHT22;1778;47.966;7.854;2022-09-01T02:31:52;14.50;99.90
3528;DHT22;1778;47.966;7.854;2022-09-01T02:32:53;14.50;99.90
3528;DHT22;1778;47.966;7.854;2022-09-01T02:33:55;14.50;99.90
3528;DHT22;1778;47.966;7.854;2022-09-01T02:34:57;14.40;99.90
3528;DHT22;1778;47.966;7.854;2022-09-01T02:36:05;14.50;99.90
3528;DHT22;1778;47.966;7.854;2022-09-01T02:37:07;14.50;99.90
3528;DHT22;1778;47.966;7.854;2022-09-01T02:38:09;14.40;99.90
3528;DHT22;1778;47.966;7.854;2022-09-01T02:39:22;14.40;99.90
3528;DHT22;1778;47.966;7.854;2022-09-01T02:40:23;14.40;99.90
3528;DHT22;1778;47.966;7.854;2022-09-01T02:41:26;14.40;99.90
3528;DHT22;1778;47.966;7.854;2022-09-01T02:42:33;14.40;99.90
3528;DHT22;1778;47.966;7.854;2022-09-01T02:43:34;14.40;99.90
3528;DHT22;1778;47.966;7.854;2022-09-01T02:44:38;14.30;99.90
3528;DHT22;1778;47.966;7.854;2022-09-01T02:45:41;14.30;99.90
3528;DHT22;1778;47.966;7.854;2022-09-01T02:46:45;14.40;99.90
3528;DHT22;1778;47.966;7.854;2022-09-01T02:47:47;14.40;99.90
3528;DHT22;1778;47.966;7.854;2022-09-01T02:48:49;14.40;99.90
3528;DHT22;1778;47.966;7.854;2022-09-01T02:49:51;14.40;99.90
3528;DHT22;1778;47.966;7.854;2022-09-01T02:50:53;14.40;99.90
3528;DHT22;1778;47.966;7.854;2022-09-01T02:52:00;14.40;99.90
3528;DHT22;1778;47.966;7.854;2022-09-01T02:53:04;14.50;99.90
3528;DHT22;1778;47.966;7.854;2022-09-01T02:54:11;14.40;99.90
3528;DHT22;1778;47.966;7.854;2022-09-01T02:55:19;14.40;99.90
3528;DHT22;1778;47.966;7.854;2022-09-01T02:56:24;14.40;99.90
3528;DHT22;1778;47.966;7.854;2022-09-01T02:57:27;14.50;99.90
3528;DHT22;1778;47.966;7.854;2022-09-01T02:58:30;14.50;99.90
3528;DHT22;1778;47.966;7.854;2022-09-01T02:59:34;14.40;99.90
3528;DHT22;1778;47.966;7.854;2022-09-01T03:00:43;14.50;99.90
3528;DHT22;1778;47.966;7.854;2022-09-01T03:01:45;14.50;99.90
3528;DHT22;1778;47.966;7.854;2022-09-01T03:02:49;14.50;99.90
3528;DHT22;1778;47.966;7.854;2022-09-01T03:03:55;14.40;99.90
3528;DHT22;1778;47.966;7.854;2022-09-01T03:04:57;14.40;99.90
3528;DHT22;1778;47.966;7.854;2022-09-01T03:05:58;14.40;99.90
3528;DHT22;1778;47.966;7.854;2022-09-01T03:07:03;14.40;99.90
3528;DHT22;1778;47.966;7.854;2022-09-01T03:08:08;14.40;99.90
3528;DHT22;1778;47.966;7.854;2022-09-01T03:09:13;14.40;99.90
3528;DHT22;1778;47.966;7.854;2022-09-01T03:10:16;14.40;99.90
3528;DHT22;1778;47.966;7.854;2022-09-01T03:11:20;14.40;99.90
3528;DHT22;1778;47.966;7.854;2022-09-01T03:12:21;14.40;99.90
3528;DHT22;1778;47.966;7.854;2022-09-01T03:13:24;14.40;99.90
3528;DHT22;1778;47.966;7.854;2022-09-01T03:14:25;14.40;99.90
3528;DHT22;1778;47.966;7.854;2022-09-01T03:15:28;14.50;99.90
3528;DHT22;1778;47.966;7.854;2022-09-01T03:16:30;14.50;99.90
3528;DHT22;1778;47.966;7.854;2022-09-01T03:17:33;14.50;99.90
3528;DHT22;1778;47.966;7.854;2022-09-01T03:18:36;14.50;99.90
3528;DHT22;1778;47.966;7.854;2022-09-01T03:19:40;14.60;99.90
3528;DHT22;1778;47.966;7.854;2022-09-01T03:20:46;14.50;99.90
3528;DHT22;1778;47.966;7.854;2022-09-01T03:21:47;14.50;99.90
3528;DHT22;1778;47.966;7.854;2022-09-01T03:22:53;14.50;99.90
3528;DHT22;1778;47.966;7.854;2022-09-01T03:23:58;14.50;99.90
3528;DHT22;1778;47.966;7.854;2022-09-01T03:25:02;14.50;99.90
3528;DHT22;1778;47.966;7.854;2022-09-01T03:26:05;14.50;99.90
3528;DHT22;1778;47.966;7.854;2022-09-01T03:27:06;14.40;99.90
3528;DHT22;1778;47.966;7.854;2022-09-01T03:28:10;14.40;99.90
3528;DHT22;1778;47.966;7.854;2022-09-01T03:29:13;14.40;99.90
3528;DHT22;1778;47.966;7.854;2022-09-01T03:30:16;14.50;99.90
3528;DHT22;1778;47.966;7.854;2022-09-01T03:31:19;14.40;99.90
3528;DHT22;1778;47.966;7.854;2022-09-01T03:32:23;14.40;99.90
3528;DHT22;1778;47.966;7.854;2022-09-01T03:33:26;14.30;99.90
3528;DHT22;1778;47.966;7.854;2022-09-01T03:34:29;14.40;99.90
3528;DHT22;1778;47.966;7.854;2022-09-01T03:35:35;14.40;99.90
3528;DHT22;1778;47.966;7.854;2022-09-01T03:36:37;14.40;99.90
3528;DHT22;1778;47.966;7.854;2022-09-01T03:37:40;14.40;99.90
3528;DHT22;1778;47.966;7.854;2022-09-01T03:38:45;14.30;99.90
3528;DHT22;1778;47.966;7.854;2022-09-01T03:39:50;14.30;99.90
3528;DHT22;1778;47.966;7.854;2022-09-01T03:41:04;14.30;99.90
3528;DHT22;1778;47.966;7.854;2022-09-01T03:42:06;14.20;99.90
3528;DHT22;1778;47.966;7.854;2022-09-01T03:43:12;14.20;99.90
3528;DHT22;1778;47.966;7.854;2022-09-01T03:44:15;14.30;99.90
3528;DHT22;1778;47.966;7.854;2022-09-01T03:45:18;14.30;99.90
3528;DHT22;1778;47.966;7.854;2022-09-01T03:46:21;14.30;99.90
3528;DHT22;1778;47.966;7.854;2022-09-01T03:47:23;14.20;99.90
3528;DHT22;1778;47.966;7.854;2022-09-01T03:48:28;14.30;99.90
3528;DHT22;1778;47.966;7.854;2022-09-01T03:49:32;14.40;99.90
3528;DHT22;1778;47.966;7.854;2022-09-01T03:50:36;14.30;99.90
3528;DHT22;1778;47.966;7.854;2022-09-01T03:51:42;14.40;99.90
3528;DHT22;1778;47.966;7.854;2022-09-01T03:52:51;14.40;99.90
3528;DHT22;1778;47.966;7.854;2022-09-01T03:53:54;14.40;99.90
3528;DHT22;1778;47.966;7.854;2022-09-01T03:54:57;14.40;99.90
3528;DHT22;1778;47.966;7.854;2022-09-01T03:55:59;14.40;99.90
3528;DHT22;1778;47.966;7.854;2022-09-01T03:57:05;14.40;99.90
3528;DHT22;1778;47.966;7.854;2022-09-01T03:58:08;14.40;99.90
3528;DHT22;1778;47.966;7.854;2022-09-01T03:59:12;14.40;99.90
3528;DHT22;1778;47.966;7.854;2022-09-01T04:00:19;14.30;99.90
3528;DHT22;1778;47.966;7.854;2022-09-01T04:01:24;14.20;99.90
3528;DHT22;1778;47.966;7.854;2022-09-01T04:02:26;14.20;99.90
3528;DHT22;1778;47.966;7.854;2022-09-01T04:03:31;14.20;99.90
3528;DHT22;1778;47.966;7.854;2022-09-01T04:04:37;14.10;99.90
3528;DHT22;1778;47.966;7.854;2022-09-01T04:05:42;14.10;99.90
3528;DHT22;1778;47.966;7.854;2022-09-01T04:06:45;14.10;99.90
3528;DHT22;1778;47.966;7.854;2022-09-01T04:07:48;14.10;99.90
3528;DHT22;1778;47.966;7.854;2022-09-01T04:08:51;14.10;99.90
3528;DHT22;1778;47.966;7.854;2022-09-01T04:10:05;14.10;99.90
3528;DHT22;1778;47.966;7.854;2022-09-01T04:11:16;14.10;99.90
3528;DHT22;1778;47.966;7.854;2022-09-01T04:12:20;14.10;99.90
3528;DHT22;1778;47.966;7.854;2022-09-01T04:13:32;14.00;99.90
3528;DHT22;1778;47.966;7.854;2022-09-01T04:14:35;14.00;99.90
3528;DHT22;1778;47.966;7.854;2022-09-01T04:15:37;14.10;99.90
3528;DHT22;1778;47.966;7.854;2022-09-01T04:16:40;14.10;99.90
3528;DHT22;1778;47.966;7.854;2022-09-01T04:18:00;14.10;99.90
3528;DHT22;1778;47.966;7.854;2022-09-01T04:19:14;14.10;99.90
3528;DHT22;1778;47.966;7.854;2022-09-01T04:20:21;14.00;99.90
3528;DHT22;1778;47.966;7.854;2022-09-01T04:21:23;14.10;99.90
3528;DHT22;1778;47.966;7.854;2022-09-01T04:22:25;14.10;99.90
3528;DHT22;1778;47.966;7.854;2022-09-01T04:23:33;14.10;99.90
3528;DHT22;1778;47.966;7.854;2022-09-01T04:24:39;14.10;99.90
3528;DHT22;1778;47.966;7.854;2022-09-01T04:25:48;14.10;99.90
3528;DHT22;1778;47.966;7.854;2022-09-01T04:26:52;14.10;99.90
3528;DHT22;1778;47.966;7.854;2022-09-01T04:27:54;14.00;99.90
3528;DHT22;1778;47.966;7.854;2022-09-01T04:28:57;13.90;99.90
3528;DHT22;1778;47.966;7.854;2022-09-01T04:29:59;13.90;99.90
3528;DHT22;1778;47.966;7.854;2022-09-01T04:31:09;13.90;99.90
3528;DHT22;1778;47.966;7.854;2022-09-01T04:32:15;13.90;99.90
3528;DHT22;1778;47.966;7.854;2022-09-01T04:33:23;13.90;99.90
3528;DHT22;1778;47.966;7.854;2022-09-01T04:34:25;13.80;99.90
3528;DHT22;1778;47.966;7.854;2022-09-01T04:35:28;13.80;99.90
3528;DHT22;1778;47.966;7.854;2022-09-01T04:36:43;13.80;99.90
3528;DHT22;1778;47.966;7.854;2022-09-01T04:37:45;13.90;99.90
3528;DHT22;1778;47.966;7.854;2022-09-01T04:38:51;13.90;99.90
3528;DHT22;1778;47.966;7.854;2022-09-01T04:39:56;13.90;99.90
3528;DHT22;1778;47.966;7.854;2022-09-01T04:41:03;13.90;99.90
3528;DHT22;1778;47.966;7.854;2022-09-01T04:42:06;13.90;99.90
3528;DHT22;1778;47.966;7.854;2022-09-01T04:43:09;13.90;99.90
3528;DHT22;1778;47.966;7.854;2022-09-01T04:44:12;13.80;99.90
3528;DHT22;1778;47.966;7.854;2022-09-01T04:45:16;13.80;99.90
3528;DHT22;1778;47.966;7.854;2022-09-01T04:46:24;13.70;99.90
3528;DHT22;1778;47.966;7.854;2022-09-01T04:47:28;13.70;99.90
3528;DHT22;1778;47.966;7.854;2022-09-01T04:48:41;13.80;99.90
3528;DHT22;1778;47.966;7.854;2022-09-01T04:49:48;13.70;99.90
3528;DHT22;1778;47.966;7.854;2022-09-01T04:50:51;13.70;99.90
3528;DHT22;1778;47.966;7.854;2022-09-01T04:52:04;13.80;99.90
3528;DHT22;1778;47.966;7.854;2022-09-01T04:53:06;13.80;99.90
3528;DHT22;1778;47.966;7.854;2022-09-01T04:54:20;13.80;99.90
3528;DHT22;1778;47.966;7.854;2022-09-01T04:55:23;13.70;99.90
3528;DHT22;1778;47.966;7.854;2022-09-01T04:56:25;13.70;99.90
3528;DHT22;1778;47.966;7.854;2022-09-01T04:57:39;13.70;99.90
3528;DHT22;1778;47.966;7.854;2022-09-01T04:58:43;13.60;99.90
3528;DHT22;1778;47.966;7.854;2022-09-01T05:00:57;13.70;99.90
3528;DHT22;1778;47.966;7.854;2022-09-01T05:02:00;13.70;99.90
3528;DHT22;1778;47.966;7.854;2022-09-01T05:03:03;13.70;99.90
3528;DHT22;1778;47.966;7.854;2022-09-01T05:04:31;13.70;99.90
3528;DHT22;1778;47.966;7.854;2022-09-01T05:05:41;13.70;99.90
3528;DHT22;1778;47.966;7.854;2022-09-01T05:06:46;13.70;99.90
3528;DHT22;1778;47.966;7.854;2022-09-01T05:07:51;13.70;99.90
3528;DHT22;1778;47.966;7.854;2022-09-01T05:08:55;13.70;99.90
3528;DHT22;1778;47.966;7.854;2022-09-01T05:10:19;13.70;99.90
3528;DHT22;1778;47.966;7.854;2022-09-01T05:11:42;13.80;99.90
3528;DHT22;1778;47.966;7.854;2022-09-01T05:13:14;13.70;99.90
3528;DHT22;1778;47.966;7.854;2022-09-01T05:14:19;13.60;99.90
3528;DHT22;1778;47.966;7.854;2022-09-01T05:15:22;13.60;99.90
3528;DHT22;1778;47.966;7.854;2022-09-01T05:16:23;13.70;99.90
3528;DHT22;1778;47.966;7.854;2022-09-01T05:17:30;13.60;99.90
3528;DHT22;1778;47.966;7.854;2022-09-01T05:18:32;13.70;99.90
3528;DHT22;1778;47.966;7.854;2022-09-01T05:19:34;13.70;99.90
3528;DHT22;1778;47.966;7.854;2022-09-01T05:20:39;13.70;99.90
3528;DHT22;1778;47.966;7.854;2022-09-01T05:21:44;13.70;99.90
3528;DHT22;1778;47.966;7.854;2022-09-01T05:22:47;13.70;99.90
3528;DHT22;1778;47.966;7.854;2022-09-01T05:23:49;13.70;99.90
3528;DHT22;1778;47.966;7.854;2022-09-01T05:24:53;13.70;99.90
3528;DHT22;1778;47.966;7.854;2022-09-01T05:25:56;13.70;99.90
3528;DHT22;1778;47.966;7.854;2022-09-01T05:26:58;13.70;99.90
3528;DHT22;1778;47.966;7.854;2022-09-01T05:28:01;13.60;99.90
3528;DHT22;1778;47.966;7.854;2022-09-01T05:29:04;13.60;99.90
3528;DHT22;1778;47.966;7.854;2022-09-01T05:30:11;13.70;99.90
3528;DHT22;1778;47.966;7.854;2022-09-01T05:31:13;13.60;99.90
3528;DHT22;1778;47.966;7.854;2022-09-01T05:32:15;13.60;99.90
3528;DHT22;1778;47.966;7.854;2022-09-01T05:33:18;13.70;99.90
3528;DHT22;1778;47.966;7.854;2022-09-01T05:34:24;13.60;99.90
3528;DHT22;1778;47.966;7.854;2022-09-01T05:35:30;13.60;99.90
3528;DHT22;1778;47.966;7.854;2022-09-01T05:36:33;13.70;99.90
3528;DHT22;1778;47.966;7.854;2022-09-01T05:37:37;13.70;99.90
3528;DHT22;1778;47.966;7.854;2022-09-01T05:38:40;13.70;99.90
3528;DHT22;1778;47.966;7.854;2022-09-01T05:39:44;13.80;99.90
3528;DHT22;1778;47.966;7.854;2022-09-01T05:40:55;13.80;99.90
3528;DHT22;1778;47.966;7.854;2022-09-01T05:41:58;13.70;99.90
3528;DHT22;1778;47.966;7.854;2022-09-01T05:43:01;13.70;99.90
3528;DHT22;1778;47.966;7.854;2022-09-01T05:44:03;13.70;99.90
3528;DHT22;1778;47.966;7.854;2022-09-01T05:45:09;13.70;99.90
3528;DHT22;1778;47.966;7.854;2022-09-01T05:46:14;13.70;99.90
3528;DHT22;1778;47.966;7.854;2022-09-01T05:47:17;13.70;99.90
3528;DHT22;1778;47.966;7.854;2022-09-01T05:48:23;13.70;99.90
3528;DHT22;1778;47.966;7.854;2022-09-01T05:49:25;13.70;99.90
3528;DHT22;1778;47.966;7.854;2022-09-01T05:50:29;13.70;99.90
3528;DHT22;1778;47.966;7.854;2022-09-01T05:51:32;13.70;99.90
3528;DHT22;1778;47.966;7.854;2022-09-01T05:52:52;13.70;99.90
3528;DHT22;1778;47.966;7.854;2022-09-01T05:53:55;13.80;99.90
3528;DHT22;1778;47.966;7.854;2022-09-01T05:55:02;13.80;99.90
3528;DHT22;1778;47.966;7.854;2022-09-01T05:56:06;13.80;99.90
3528;DHT22;1778;47.966;7.854;2022-09-01T05:57:10;13.70;99.90
3528;DHT22;1778;47.966;7.854;2022-09-01T05:58:32;13.70;99.90
3528;DHT22;1778;47.966;7.854;2022-09-01T05:59:54;13.80;99.90
3528;DHT22;1778;47.966;7.854;2022-09-01T06:01:00;13.90;99.90
3528;DHT22;1778;47.966;7.854;2022-09-01T06:02:16;13.90;99.90
3528;DHT22;1778;47.966;7.854;2022-09-01T06:03:21;13.90;99.90
3528;DHT22;1778;47.966;7.854;2022-09-01T06:04:24;13.90;99.90
3528;DHT22;1778;47.966;7.854;2022-09-01T06:05:27;13.90;99.90
3528;DHT22;1778;47.966;7.854;2022-09-01T06:06:41;13.90;99.90
3528;DHT22;1778;47.966;7.854;2022-09-01T06:08:06;14.00;99.90
3528;DHT22;1778;47.966;7.854;2022-09-01T06:09:13;13.90;99.90
3528;DHT22;1778;47.966;7.854;2022-09-01T06:10:19;13.90;99.90
3528;DHT22;1778;47.966;7.854;2022-09-01T06:11:21;14.00;99.90
3528;DHT22;1778;47.966;7.854;2022-09-01T06:12:25;14.10;99.90
3528;DHT22;1778;47.966;7.854;2022-09-01T06:13:28;14.20;99.90
3528;DHT22;1778;47.966;7.854;2022-09-01T06:14:31;14.20;99.90
3528;DHT22;1778;47.966;7.854;2022-09-01T06:15:36;14.20;99.90
3528;DHT22;1778;47.966;7.854;2022-09-01T06:16:41;14.20;99.90
3528;DHT22;1778;47.966;7.854;2022-09-01T06:17:44;14.30;99.90
3528;DHT22;1778;47.966;7.854;2022-09-01T06:18:46;14.20;99.90
3528;DHT22;1778;47.966;7.854;2022-09-01T06:19:55;14.30;99.90
3528;DHT22;1778;47.966;7.854;2022-09-01T06:20:57;14.30;99.90
3528;DHT22;1778;47.966;7.854;2022-09-01T06:21:59;14.40;99.90
3528;DHT22;1778;47.966;7.854;2022-09-01T06:23:01;14.40;99.90
3528;DHT22;1778;47.966;7.854;2022-09-01T06:24:03;14.40;99.90
3528;DHT22;1778;47.966;7.854;2022-09-01T06:25:08;14.50;99.90
3528;DHT22;1778;47.966;7.854;2022-09-01T06:26:21;14.60;99.90
3528;DHT22;1778;47.966;7.854;2022-09-01T06:27:33;14.70;99.90
3528;DHT22;1778;47.966;7.854;2022-09-01T06:28:39;14.70;99.90
3528;DHT22;1778;47.966;7.854;2022-09-01T06:29:42;14.70;99.90
3528;DHT22;1778;47.966;7.854;2022-09-01T06:30:45;14.70;99.90
3528;DHT22;1778;47.966;7.854;2022-09-01T06:31:49;14.70;99.90
3528;DHT22;1778;47.966;7.854;2022-09-01T06:32:54;14.80;99.90
3528;DHT22;1778;47.966;7.854;2022-09-01T06:33:56;14.80;99.90
3528;DHT22;1778;47.966;7.854;2022-09-01T06:35:00;14.90;99.90
3528;DHT22;1778;47.966;7.854;2022-09-01T06:36:05;15.00;99.90
3528;DHT22;1778;47.966;7.854;2022-09-01T06:37:11;15.10;99.90
3528;DHT22;1778;47.966;7.854;2022-09-01T06:38:16;15.00;99.90
3528;DHT22;1778;47.966;7.854;2022-09-01T06:39:20;15.10;99.90
3528;DHT22;1778;47.966;7.854;2022-09-01T06:40:26;15.10;99.90
3528;DHT22;1778;47.966;7.854;2022-09-01T06:41:28;15.10;99.90
3528;DHT22;1778;47.966;7.854;2022-09-01T06:42:32;15.20;99.90
3528;DHT22;1778;47.966;7.854;2022-09-01T06:43:35;15.20;99.90
3528;DHT22;1778;47.966;7.854;2022-09-01T06:44:37;15.30;99.90
3528;DHT22;1778;47.966;7.854;2022-09-01T06:45:45;15.30;99.90
3528;DHT22;1778;47.966;7.854;2022-09-01T06:46:51;15.40;99.90
3528;DHT22;1778;47.966;7.854;2022-09-01T06:47:53;15.40;99.90
3528;DHT22;1778;47.966;7.854;2022-09-01T06:49:01;15.40;99.90
3528;DHT22;1778;47.966;7.854;2022-09-01T06:50:04;15.50;99.90
3528;DHT22;1778;47.966;7.854;2022-09-01T06:51:09;15.50;99.90
3528;DHT22;1778;47.966;7.854;2022-09-01T06:52:18;15.60;99.90
3528;DHT22;1778;47.966;7.854;2022-09-01T06:53:22;15.60;99.90
3528;DHT22;1778;47.966;7.854;2022-09-01T06:54:41;15.70;99.90
3528;DHT22;1778;47.966;7.854;2022-09-01T06:55:48;15.70;99.90
3528;DHT22;1778;47.966;7.854;2022-09-01T06:56:49;15.80;99.90
3528;DHT22;1778;47.966;7.854;2022-09-01T06:57:54;15.80;99.90
3528;DHT22;1778;47.966;7.854;2022-09-01T06:59:22;15.90;99.90
3528;DHT22;1778;47.966;7.854;2022-09-01T07:00:36;16.00;99.90
3528;DHT22;1778;47.966;7.854;2022-09-01T07:01:43;16.00;99.90
3528;DHT22;1778;47.966;7.854;2022-09-01T07:02:55;16.10;99.90
3528;DHT22;1778;47.966;7.854;2022-09-01T07:04:23;16.20;99.90
3528;DHT22;1778;47.966;7.854;2022-09-01T07:05:46;16.20;99.90
3528;DHT22;1778;47.966;7.854;2022-09-01T07:07:26;16.30;99.90
3528;DHT22;1778;47.966;7.854;2022-09-01T07:09:07;16.20;99.90
3528;DHT22;1778;47.966;7.854;2022-09-01T07:10:50;16.30;99.90
3528;DHT22;1778;47.966;7.854;2022-09-01T07:12:15;16.40;99.90
3528;DHT22;1778;47.966;7.854;2022-09-01T07:13:29;16.40;99.90